sensor_id;sensor_type;location;lat;lon;timestamp;pressure;altitude;pressure_sealevel;temperature
47484;BMP280;54076;50.322;18.650;2023-10-08T00:03:25;150380.91;;;11.02
47484;BMP280;54076;50.322;18.650;2023-10-08T00:08:29;150127.66;;;10.93
47484;BMP280;54076;50.322;18.650;2023-10-08T00:13:30;150142.00;;;10.93
47484;BMP280;54076;50.322;18.650;2023-10-08T00:18:31;149595.52;;;10.72
47484;BMP280;54076;50.322;18.650;2023-10-08T00:23:33;149522.72;;;10.68
47484;BMP280;54076;50.322;18.650;2023-10-08T00:28:36;148742.08;;;10.39
47484;BMP280;54076;50.322;18.650;2023-10-08T00:33:38;149057.44;;;10.50
47484;BMP280;54076;50.322;18.650;2023-10-08T00:38:39;148870.13;;;10.43
47484;BMP280;54076;50.322;18.650;2023-10-08T00:43:44;149279.91;;;10.59
47484;BMP280;54076;50.322;18.650;2023-10-08T00:48:46;149029.36;;;10.49
47484;BMP280;54076;50.322;18.650;2023-10-08T00:54:03;148971.89;;;10.46
47484;BMP280;54076;50.322;18.650;2023-10-08T00:59:12;148814.00;;;10.41
47484;BMP280;54076;50.322;18.650;2023-10-08T01:04:21;149170.53;;;10.54
47484;BMP280;54076;50.322;18.650;2023-10-08T01:09:34;148372.50;;;10.24
47484;BMP280;54076;50.322;18.650;2023-10-08T01:14:38;148311.70;;;10.21
47484;BMP280;54076;50.322;18.650;2023-10-08T01:19:43;148436.73;;;10.25
47484;BMP280;54076;50.322;18.650;2023-10-08T01:24:46;147396.95;;;9.88
47484;BMP280;54076;50.322;18.650;2023-10-08T01:29:52;147386.64;;;9.87
47484;BMP280;54076;50.322;18.650;2023-10-08T01:34:53;145960.97;;;9.38
47484;BMP280;54076;50.322;18.650;2023-10-08T01:39:54;145347.41;;;9.17
47484;BMP280;54076;50.322;18.650;2023-10-08T01:44:54;144423.38;;;8.86
47484;BMP280;54076;50.322;18.650;2023-10-08T01:49:56;143539.72;;;8.55
47484;BMP280;54076;50.322;18.650;2023-10-08T01:55:06;143453.41;;;8.53
47484;BMP280;54076;50.322;18.650;2023-10-08T02:00:12;142800.84;;;8.29
47484;BMP280;54076;50.322;18.650;2023-10-08T02:05:14;142270.84;;;8.11
47484;BMP280;54076;50.322;18.650;2023-10-08T02:10:15;142079.84;;;8.05
47484;BMP280;54076;50.322;18.650;2023-10-08T02:15:16;141891.50;;;7.98
47484;BMP280;54076;50.322;18.650;2023-10-08T02:20:17;142158.00;;;8.07
47484;BMP280;54076;50.322;18.650;2023-10-08T02:25:19;141947.38;;;8.00
47484;BMP280;54076;50.322;18.650;2023-10-08T02:30:20;141628.11;;;7.88
47484;BMP280;54076;50.322;18.650;2023-10-08T02:35:21;141533.59;;;7.85
47484;BMP280;54076;50.322;18.650;2023-10-08T02:40:23;141167.75;;;7.73
47484;BMP280;54076;50.322;18.650;2023-10-08T02:45:28;141420.28;;;7.82
47484;BMP280;54076;50.322;18.650;2023-10-08T02:50:29;140703.22;;;7.60
47484;BMP280;54076;50.322;18.650;2023-10-08T02:55:30;140698.33;;;7.60
47484;BMP280;54076;50.322;18.650;2023-10-08T03:00:37;139422.63;;;7.23
47484;BMP280;54076;50.322;18.650;2023-10-08T03:05:49;139368.84;;;7.21
47484;BMP280;54076;50.322;18.650;2023-10-08T03:10:52;139237.84;;;7.18
47484;BMP280;54076;50.322;18.650;2023-10-08T03:15:56;138793.64;;;7.04
47484;BMP280;54076;50.322;18.650;2023-10-08T03:21:07;139044.08;;;7.12
47484;BMP280;54076;50.322;18.650;2023-10-08T03:26:34;139277.92;;;7.18
47484;BMP280;54076;50.322;18.650;2023-10-08T03:31:36;138649.84;;;7.00
47484;BMP280;54076;50.322;18.650;2023-10-08T03:36:49;138927.91;;;7.07
47484;BMP280;54076;50.322;18.650;2023-10-08T03:42:03;138522.72;;;6.96
47484;BMP280;54076;50.322;18.650;2023-10-08T03:47:10;138538.25;;;6.97
47484;BMP280;54076;50.322;18.650;2023-10-08T03:52:12;138060.67;;;6.84
47484;BMP280;54076;50.322;18.650;2023-10-08T03:57:16;137717.30;;;6.73
47484;BMP280;54076;50.322;18.650;2023-10-08T04:02:26;137195.23;;;6.59
47484;BMP280;54076;50.322;18.650;2023-10-08T04:07:42;137317.64;;;6.62
47484;BMP280;54076;50.322;18.650;2023-10-08T04:13:04;136194.50;;;6.31
47484;BMP280;54076;50.322;18.650;2023-10-08T04:18:11;136211.09;;;6.31
47484;BMP280;54076;50.322;18.650;2023-10-08T04:23:13;136681.88;;;6.44
47484;BMP280;54076;50.322;18.650;2023-10-08T04:28:18;135185.84;;;6.03
47484;BMP280;54076;50.322;18.650;2023-10-08T04:33:21;135507.59;;;6.11
47484;BMP280;54076;50.322;18.650;2023-10-08T04:38:24;134812.20;;;5.94
47484;BMP280;54076;50.322;18.650;2023-10-08T04:43:29;135007.17;;;5.98
47484;BMP280;54076;50.322;18.650;2023-10-08T04:48:31;134927.77;;;5.96
47484;BMP280;54076;50.322;18.650;2023-10-08T04:53:37;134413.00;;;5.82
47484;BMP280;54076;50.322;18.650;2023-10-08T04:58:41;134527.83;;;5.84
47484;BMP280;54076;50.322;18.650;2023-10-08T05:03:53;134336.88;;;5.80
47484;BMP280;54076;50.322;18.650;2023-10-08T05:08:57;134152.22;;;5.74
47484;BMP280;54076;50.322;18.650;2023-10-08T05:14:10;134095.45;;;5.73
47484;BMP280;54076;50.322;18.650;2023-10-08T05:19:31;134814.70;;;5.93
47484;BMP280;54076;50.322;18.650;2023-10-08T05:24:50;134925.47;;;5.95
47484;BMP280;54076;50.322;18.650;2023-10-08T05:30:09;134480.03;;;5.82
47484;BMP280;54076;50.322;18.650;2023-10-08T05:35:17;135081.44;;;5.97
47484;BMP280;54076;50.322;18.650;2023-10-08T05:40:36;134466.13;;;5.81
47484;BMP280;54076;50.322;18.650;2023-10-08T05:45:55;134344.61;;;5.78
47484;BMP280;54076;50.322;18.650;2023-10-08T05:51:16;134517.53;;;5.82
47484;BMP280;54076;50.322;18.650;2023-10-08T05:56:34;134559.34;;;5.82
47484;BMP280;54076;50.322;18.650;2023-10-08T06:01:55;134497.03;;;5.80
47484;BMP280;54076;50.322;18.650;2023-10-08T06:07:16;135286.19;;;6.01
47484;BMP280;54076;50.322;18.650;2023-10-08T06:12:33;135346.50;;;6.01
47484;BMP280;54076;50.322;18.650;2023-10-08T06:17:45;135441.09;;;6.02
47484;BMP280;54076;50.322;18.650;2023-10-08T06:23:06;134600.03;;;5.79
47484;BMP280;54076;50.322;18.650;2023-10-08T06:28:07;135194.72;;;5.95
47484;BMP280;54076;50.322;18.650;2023-10-08T06:33:10;135072.20;;;5.89
47484;BMP280;54076;50.322;18.650;2023-10-08T06:38:11;135097.70;;;5.91
47484;BMP280;54076;50.322;18.650;2023-10-08T06:43:15;135126.73;;;5.93
47484;BMP280;54076;50.322;18.650;2023-10-08T06:48:21;134955.11;;;5.90
47484;BMP280;54076;50.322;18.650;2023-10-08T06:53:24;135127.88;;;5.92
47484;BMP280;54076;50.322;18.650;2023-10-08T06:58:26;135470.22;;;5.98
47484;BMP280;54076;50.322;18.650;2023-10-08T07:03:26;134365.58;;;5.72
47484;BMP280;54076;50.322;18.650;2023-10-08T07:08:30;135184.02;;;5.98
47484;BMP280;54076;50.322;18.650;2023-10-08T07:13:36;135145.38;;;5.92
47484;BMP280;54076;50.322;18.650;2023-10-08T07:18:38;135406.91;;;6.02
47484;BMP280;54076;50.322;18.650;2023-10-08T07:23:40;136532.03;;;6.31
47484;BMP280;54076;50.322;18.650;2023-10-08T07:29:00;136523.95;;;6.29
47484;BMP280;54076;50.322;18.650;2023-10-08T07:34:01;135589.14;;;6.04
47484;BMP280;54076;50.322;18.650;2023-10-08T07:39:17;135875.75;;;6.10
47484;BMP280;54076;50.322;18.650;2023-10-08T07:44:35;136407.28;;;6.24
47484;BMP280;54076;50.322;18.650;2023-10-08T07:49:39;136574.17;;;6.27
47484;BMP280;54076;50.322;18.650;2023-10-08T07:54:41;136365.47;;;6.20
47484;BMP280;54076;50.322;18.650;2023-10-08T07:59:43;137283.09;;;6.47
47484;BMP280;54076;50.322;18.650;2023-10-08T08:04:51;137703.03;;;6.60
47484;BMP280;54076;50.322;18.650;2023-10-08T08:09:53;138708.88;;;6.87
47484;BMP280;54076;50.322;18.650;2023-10-08T08:15:00;138841.91;;;6.92
47484;BMP280;54076;50.322;18.650;2023-10-08T08:20:04;139654.06;;;7.15
47484;BMP280;54076;50.322;18.650;2023-10-08T08:25:18;138918.38;;;6.96
47484;BMP280;54076;50.322;18.650;2023-10-08T08:30:34;139488.05;;;7.10
47484;BMP280;54076;50.322;18.650;2023-10-08T08:35:37;140413.97;;;7.37
47484;BMP280;54076;50.322;18.650;2023-10-08T08:40:38;141018.19;;;7.54
47484;BMP280;54076;50.322;18.650;2023-10-08T08:45:40;140216.17;;;7.32
47484;BMP280;54076;50.322;18.650;2023-10-08T08:50:42;139596.33;;;7.16
47484;BMP280;54076;50.322;18.650;2023-10-08T08:55:43;140035.34;;;7.27
47484;BMP280;54076;50.322;18.650;2023-10-08T09:00:48;140474.31;;;7.40
47484;BMP280;54076;50.322;18.650;2023-10-08T09:05:52;141961.22;;;7.86
47484;BMP280;54076;50.322;18.650;2023-10-08T09:10:59;142276.45;;;7.97
47484;BMP280;54076;50.322;18.650;2023-10-08T09:16:15;141987.11;;;7.86
47484;BMP280;54076;50.322;18.650;2023-10-08T09:21:19;142091.47;;;7.90
47484;BMP280;54076;50.322;18.650;2023-10-08T09:26:24;142141.16;;;7.92
47484;BMP280;54076;50.322;18.650;2023-10-08T09:31:26;142063.28;;;7.89
47484;BMP280;54076;50.322;18.650;2023-10-08T09:36:31;143143.05;;;8.26
47484;BMP280;54076;50.322;18.650;2023-10-08T09:41:32;143597.34;;;8.41
47484;BMP280;54076;50.322;18.650;2023-10-08T09:46:35;143232.27;;;8.31
47484;BMP280;54076;50.322;18.650;2023-10-08T09:51:40;141510.00;;;7.71
47484;BMP280;54076;50.322;18.650;2023-10-08T09:56:41;141205.55;;;7.58
47484;BMP280;54076;50.322;18.650;2023-10-08T10:01:44;141571.47;;;7.70
47484;BMP280;54076;50.322;18.650;2023-10-08T10:06:45;143512.09;;;8.38
47484;BMP280;54076;50.322;18.650;2023-10-08T10:11:49;143811.09;;;8.49
47484;BMP280;54076;50.322;18.650;2023-10-08T10:17:19;144619.70;;;8.75
47484;BMP280;54076;50.322;18.650;2023-10-08T10:22:34;143275.50;;;8.29
47484;BMP280;54076;50.322;18.650;2023-10-08T10:27:35;144044.70;;;8.59
47484;BMP280;54076;50.322;18.650;2023-10-08T10:32:36;143966.13;;;8.50
47484;BMP280;54076;50.322;18.650;2023-10-08T10:37:37;148455.34;;;10.02
47484;BMP280;54076;50.322;18.650;2023-10-08T10:42:56;149058.70;;;10.24
47484;BMP280;54076;50.322;18.650;2023-10-08T10:47:57;150771.02;;;10.84
47484;BMP280;54076;50.322;18.650;2023-10-08T10:53:12;153298.81;;;11.86
47484;BMP280;54076;50.322;18.650;2023-10-08T10:58:13;150406.17;;;10.69
47484;BMP280;54076;50.322;18.650;2023-10-08T11:03:16;155332.09;;;12.90
47484;BMP280;54076;50.322;18.650;2023-10-08T11:08:18;156239.97;;;13.33
47484;BMP280;54076;50.322;18.650;2023-10-08T11:13:21;156307.28;;;13.36
47484;BMP280;54076;50.322;18.650;2023-10-08T11:18:24;155430.31;;;12.95
47484;BMP280;54076;50.322;18.650;2023-10-08T11:23:37;156947.98;;;13.67
47484;BMP280;54076;50.322;18.650;2023-10-08T11:28:42;156996.81;;;13.69
47484;BMP280;54076;50.322;18.650;2023-10-08T11:33:44;159694.28;;;15.07
47484;BMP280;54076;50.322;18.650;2023-10-08T11:38:56;157660.97;;;14.02
47484;BMP280;54076;50.322;18.650;2023-10-08T11:44:01;158268.47;;;14.33
47484;BMP280;54076;50.322;18.650;2023-10-08T11:49:05;158530.36;;;14.46
47484;BMP280;54076;50.322;18.650;2023-10-08T11:54:06;158748.09;;;14.59
47484;BMP280;54076;50.322;18.650;2023-10-08T11:59:07;160094.83;;;15.28
47484;BMP280;54076;50.322;18.650;2023-10-08T12:04:12;160025.00;;;15.25
47484;BMP280;54076;50.322;18.650;2023-10-08T12:09:16;159003.70;;;14.71
47484;BMP280;54076;50.322;18.650;2023-10-08T12:14:17;159908.84;;;15.20
47484;BMP280;54076;50.322;18.650;2023-10-08T12:19:19;157063.66;;;13.75
47484;BMP280;54076;50.322;18.650;2023-10-08T12:24:22;156727.33;;;13.59
47484;BMP280;54076;50.322;18.650;2023-10-08T12:29:23;155368.69;;;12.94
47484;BMP280;54076;50.322;18.650;2023-10-08T12:34:26;155741.20;;;13.14
47484;BMP280;54076;50.322;18.650;2023-10-08T12:39:30;154561.23;;;12.66
47484;BMP280;54076;50.322;18.650;2023-10-08T12:44:32;155488.86;;;13.03
47484;BMP280;54076;50.322;18.650;2023-10-08T12:49:34;155359.39;;;12.97
47484;BMP280;54076;50.322;18.650;2023-10-08T12:54:35;154766.05;;;12.66
47484;BMP280;54076;50.322;18.650;2023-10-08T12:59:45;151755.38;;;11.42
47484;BMP280;54076;50.322;18.650;2023-10-08T13:04:52;151752.14;;;11.34
47484;BMP280;54076;50.322;18.650;2023-10-08T13:09:55;152150.63;;;11.52
47484;BMP280;54076;50.322;18.650;2023-10-08T13:14:58;151047.09;;;11.09
47484;BMP280;54076;50.322;18.650;2023-10-08T13:20:02;152688.09;;;11.76
47484;BMP280;54076;50.322;18.650;2023-10-08T13:25:03;149888.59;;;10.69
47484;BMP280;54076;50.322;18.650;2023-10-08T13:30:07;150663.92;;;11.01
47484;BMP280;54076;50.322;18.650;2023-10-08T13:35:09;147487.33;;;9.79
47484;BMP280;54076;50.322;18.650;2023-10-08T13:40:11;144876.30;;;8.90
47484;BMP280;54076;50.322;18.650;2023-10-08T13:45:16;144859.38;;;8.88
47484;BMP280;54076;50.322;18.650;2023-10-08T13:50:26;147119.13;;;9.64
47484;BMP280;54076;50.322;18.650;2023-10-08T13:55:31;146420.95;;;9.40
47484;BMP280;54076;50.322;18.650;2023-10-08T14:00:31;144667.00;;;8.80
47484;BMP280;54076;50.322;18.650;2023-10-08T14:05:36;144431.97;;;8.74
47484;BMP280;54076;50.322;18.650;2023-10-08T14:10:38;143818.53;;;8.54
47484;BMP280;54076;50.322;18.650;2023-10-08T14:15:39;142874.28;;;8.20
47484;BMP280;54076;50.322;18.650;2023-10-08T14:20:46;142750.75;;;8.16
47484;BMP280;54076;50.322;18.650;2023-10-08T14:25:48;142162.03;;;7.96
47484;BMP280;54076;50.322;18.650;2023-10-08T14:30:53;142416.91;;;8.05
47484;BMP280;54076;50.322;18.650;2023-10-08T14:35:56;142509.83;;;8.08
47484;BMP280;54076;50.322;18.650;2023-10-08T14:41:16;142391.98;;;8.03
47484;BMP280;54076;50.322;18.650;2023-10-08T14:46:35;141667.42;;;7.79
47484;BMP280;54076;50.322;18.650;2023-10-08T14:51:38;140960.52;;;7.56
47484;BMP280;54076;50.322;18.650;2023-10-08T14:56:41;140446.73;;;7.42
47484;BMP280;54076;50.322;18.650;2023-10-08T15:01:41;139781.95;;;7.23
47484;BMP280;54076;50.322;18.650;2023-10-08T15:06:42;139728.92;;;7.22
47484;BMP280;54076;50.322;18.650;2023-10-08T15:11:44;139217.22;;;7.06
47484;BMP280;54076;50.322;18.650;2023-10-08T15:16:46;139508.28;;;7.16
47484;BMP280;54076;50.322;18.650;2023-10-08T15:21:52;138775.13;;;6.94
47484;BMP280;54076;50.322;18.650;2023-10-08T15:26:54;138785.25;;;6.94
47484;BMP280;54076;50.322;18.650;2023-10-08T15:31:55;138370.05;;;6.82
47484;BMP280;54076;50.322;18.650;2023-10-08T15:36:57;137977.81;;;6.71
47484;BMP280;54076;50.322;18.650;2023-10-08T15:41:59;138280.95;;;6.80
47484;BMP280;54076;50.322;18.650;2023-10-08T15:47:00;137967.13;;;6.70
47484;BMP280;54076;50.322;18.650;2023-10-08T15:52:00;137981.22;;;6.71
47484;BMP280;54076;50.322;18.650;2023-10-08T15:57:04;137621.88;;;6.61
47484;BMP280;54076;50.322;18.650;2023-10-08T16:02:05;137260.70;;;6.52
47484;BMP280;54076;50.322;18.650;2023-10-08T16:07:06;136209.33;;;6.24
47484;BMP280;54076;50.322;18.650;2023-10-08T16:12:08;136136.91;;;6.24
47484;BMP280;54076;50.322;18.650;2023-10-08T16:17:10;135572.81;;;6.10
47484;BMP280;54076;50.322;18.650;2023-10-08T16:22:13;135123.09;;;5.99
47484;BMP280;54076;50.322;18.650;2023-10-08T16:27:15;134577.31;;;5.86
47484;BMP280;54076;50.322;18.650;2023-10-08T16:32:16;133740.59;;;5.65
47484;BMP280;54076;50.322;18.650;2023-10-08T16:37:17;133258.48;;;5.52
47484;BMP280;54076;50.322;18.650;2023-10-08T16:42:22;132428.41;;;5.31
47484;BMP280;54076;50.322;18.650;2023-10-08T16:47:23;132308.73;;;5.28
47484;BMP280;54076;50.322;18.650;2023-10-08T16:52:24;132074.86;;;5.22
47484;BMP280;54076;50.322;18.650;2023-10-08T16:57:25;131437.25;;;5.04
47484;BMP280;54076;50.322;18.650;2023-10-08T17:02:26;131223.44;;;4.99
47484;BMP280;54076;50.322;18.650;2023-10-08T17:07:27;131003.80;;;4.93
47484;BMP280;54076;50.322;18.650;2023-10-08T17:12:28;130528.08;;;4.80
47484;BMP280;54076;50.322;18.650;2023-10-08T17:17:29;130321.11;;;4.75
47484;BMP280;54076;50.322;18.650;2023-10-08T17:22:31;130175.98;;;4.72
47484;BMP280;54076;50.322;18.650;2023-10-08T17:27:33;129781.35;;;4.61
47484;BMP280;54076;50.322;18.650;2023-10-08T17:32:34;129932.54;;;4.65
47484;BMP280;54076;50.322;18.650;2023-10-08T17:37:36;130146.55;;;4.71
47484;BMP280;54076;50.322;18.650;2023-10-08T17:42:39;129982.06;;;4.67
47484;BMP280;54076;50.322;18.650;2023-10-08T17:47:41;130280.19;;;4.75
47484;BMP280;54076;50.322;18.650;2023-10-08T17:52:42;129967.92;;;4.66
47484;BMP280;54076;50.322;18.650;2023-10-08T17:57:45;129688.05;;;4.58
47484;BMP280;54076;50.322;18.650;2023-10-08T18:02:47;128364.65;;;4.28
47484;BMP280;54076;50.322;18.650;2023-10-08T18:07:50;127855.11;;;4.17
47484;BMP280;54076;50.322;18.650;2023-10-08T18:12:51;128307.48;;;4.27
47484;BMP280;54076;50.322;18.650;2023-10-08T18:17:52;127824.60;;;4.16
47484;BMP280;54076;50.322;18.650;2023-10-08T18:22:55;127845.71;;;4.16
47484;BMP280;54076;50.322;18.650;2023-10-08T18:27:57;128552.55;;;4.32
47484;BMP280;54076;50.322;18.650;2023-10-08T18:32:58;127674.67;;;4.12
47484;BMP280;54076;50.322;18.650;2023-10-08T18:38:00;127245.79;;;4.03
47484;BMP280;54076;50.322;18.650;2023-10-08T18:43:01;126639.96;;;3.89
47484;BMP280;54076;50.322;18.650;2023-10-08T18:48:02;126617.73;;;3.89
47484;BMP280;54076;50.322;18.650;2023-10-08T18:53:03;126804.50;;;3.92
47484;BMP280;54076;50.322;18.650;2023-10-08T18:58:04;126114.05;;;3.77
47484;BMP280;54076;50.322;18.650;2023-10-08T19:03:06;126130.77;;;3.77
47484;BMP280;54076;50.322;18.650;2023-10-08T19:08:09;126068.33;;;3.75
47484;BMP280;54076;50.322;18.650;2023-10-08T19:13:12;125798.06;;;3.70
47484;BMP280;54076;50.322;18.650;2023-10-08T19:18:12;125820.67;;;3.70
47484;BMP280;54076;50.322;18.650;2023-10-08T19:23:15;125075.48;;;3.53
47484;BMP280;54076;50.322;18.650;2023-10-08T19:28:17;124605.29;;;3.44
47484;BMP280;54076;50.322;18.650;2023-10-08T19:33:22;124602.23;;;3.44
47484;BMP280;54076;50.322;18.650;2023-10-08T19:38:23;125437.02;;;3.63
47484;BMP280;54076;50.322;18.650;2023-10-08T19:43:25;126043.54;;;3.76
47484;BMP280;54076;50.322;18.650;2023-10-08T19:48:25;126657.09;;;3.89
47484;BMP280;54076;50.322;18.650;2023-10-08T19:53:27;126442.69;;;3.85
47484;BMP280;54076;50.322;18.650;2023-10-08T19:58:31;126893.31;;;3.94
47484;BMP280;54076;50.322;18.650;2023-10-08T20:03:32;126858.65;;;3.94
47484;BMP280;54076;50.322;18.650;2023-10-08T20:08:34;126951.04;;;3.96
47484;BMP280;54076;50.322;18.650;2023-10-08T20:13:36;127112.58;;;3.99
47484;BMP280;54076;50.322;18.650;2023-10-08T20:18:36;127003.55;;;3.97
47484;BMP280;54076;50.322;18.650;2023-10-08T20:23:37;127021.52;;;3.98
47484;BMP280;54076;50.322;18.650;2023-10-08T20:28:41;127156.73;;;4.00
47484;BMP280;54076;50.322;18.650;2023-10-08T20:33:43;127007.84;;;3.97
47484;BMP280;54076;50.322;18.650;2023-10-08T20:38:44;127065.88;;;3.99
47484;BMP280;54076;50.322;18.650;2023-10-08T20:43:45;126478.04;;;3.86
47484;BMP280;54076;50.322;18.650;2023-10-08T20:48:47;126424.95;;;3.84
47484;BMP280;54076;50.322;18.650;2023-10-08T20:53:49;125966.42;;;3.74
47484;BMP280;54076;50.322;18.650;2023-10-08T20:58:50;126407.52;;;3.84
47484;BMP280;54076;50.322;18.650;2023-10-08T21:03:51;127013.23;;;3.98
47484;BMP280;54076;50.322;18.650;2023-10-08T21:08:52;126491.39;;;3.86
47484;BMP280;54076;50.322;18.650;2023-10-08T21:13:56;125396.40;;;3.61
47484;BMP280;54076;50.322;18.650;2023-10-08T21:18:56;124854.42;;;3.49
47484;BMP280;54076;50.322;18.650;2023-10-08T21:23:58;124078.02;;;3.32
47484;BMP280;54076;50.322;18.650;2023-10-08T21:28:59;123517.11;;;3.19
47484;BMP280;54076;50.322;18.650;2023-10-08T21:34:00;123496.27;;;3.19
47484;BMP280;54076;50.322;18.650;2023-10-08T21:39:01;124178.17;;;3.34
47484;BMP280;54076;50.322;18.650;2023-10-08T21:44:05;123326.61;;;3.16
47484;BMP280;54076;50.322;18.650;2023-10-08T21:49:06;122636.40;;;3.02
47484;BMP280;54076;50.322;18.650;2023-10-08T21:54:07;122246.94;;;2.94
47484;BMP280;54076;50.322;18.650;2023-10-08T21:59:08;121706.75;;;2.82
47484;BMP280;54076;50.322;18.650;2023-10-08T22:04:10;121424.06;;;2.76
47484;BMP280;54076;50.322;18.650;2023-10-08T22:09:12;121406.27;;;2.76
47484;BMP280;54076;50.322;18.650;2023-10-08T22:14:13;121121.58;;;2.69
47484;BMP280;54076;50.322;18.650;2023-10-08T22:19:19;119737.33;;;2.40
47484;BMP280;54076;50.322;18.650;2023-10-08T22:24:22;118757.61;;;2.20
47484;BMP280;54076;50.322;18.650;2023-10-08T22:29:24;117435.35;;;1.92
47484;BMP280;54076;50.322;18.650;2023-10-08T22:34:25;116571.75;;;1.77
47484;BMP280;54076;50.322;18.650;2023-10-08T22:39:29;116352.23;;;1.73
47484;BMP280;54076;50.322;18.650;2023-10-08T22:44:30;115749.45;;;1.61
47484;BMP280;54076;50.322;18.650;2023-10-08T22:49:33;116326.02;;;1.72
47484;BMP280;54076;50.322;18.650;2023-10-08T22:54:35;116673.80;;;1.78
47484;BMP280;54076;50.322;18.650;2023-10-08T22:59:37;116456.31;;;1.75
47484;BMP280;54076;50.322;18.650;2023-10-08T23:04:40;116112.02;;;1.69
47484;BMP280;54076;50.322;18.650;2023-10-08T23:09:41;115792.05;;;1.62
47484;BMP280;54076;50.322;18.650;2023-10-08T23:14:42;115294.77;;;1.53
47484;BMP280;54076;50.322;18.650;2023-10-08T23:19:43;115392.65;;;1.55
47484;BMP280;54076;50.322;18.650;2023-10-08T23:24:45;114973.40;;;1.47
47484;BMP280;54076;50.322;18.650;2023-10-08T23:29:48;114581.11;;;1.39
47484;BMP280;54076;50.322;18.650;2023-10-08T23:34:49;114379.60;;;1.36
47484;BMP280;54076;50.322;18.650;2023-10-08T23:39:50;115419.48;;;1.55
47484;BMP280;54076;50.322;18.650;2023-10-08T23:44:55;115105.19;;;1.49
47484;BMP280;54076;50.322;18.650;2023-10-08T23:49:58;114843.56;;;1.45
47484;BMP280;54076;50.322;18.650;2023-10-08T23:55:11;115023.34;;;1.48
